sensor_id;sensor_type;location;lat;lon;timestamp;pressure;altitude;pressure_sealevel;temperature;humidity
8890;BME280;4481;43.406;24.454;2023-05-29T00:00:15;76382.31;;;-144.09;100.00
8890;BME280;4481;43.406;24.454;2023-05-29T00:02:43;76394.88;;;-144.09;100.00
8890;BME280;4481;43.406;24.454;2023-05-29T00:05:10;76399.03;;;-144.09;100.00
8890;BME280;4481;43.406;24.454;2023-05-29T00:07:37;76394.88;;;-144.09;100.00
8890;BME280;4481;43.406;24.454;2023-05-29T00:10:04;76392.78;;;-144.09;100.00
8890;BME280;4481;43.406;24.454;2023-05-29T00:12:30;76396.94;;;-144.09;100.00
8890;BME280;4481;43.406;24.454;2023-05-29T00:14:56;76376.06;;;-144.09;100.00
8890;BME280;4481;43.406;24.454;2023-05-29T00:17:23;76376.06;;;-144.09;100.00
8890;BME280;4481;43.406;24.454;2023-05-29T00:19:49;76392.78;;;-144.09;100.00
8890;BME280;4481;43.406;24.454;2023-05-29T00:22:16;76399.03;;;-144.09;100.00
8890;BME280;4481;43.406;24.454;2023-05-29T00:24:42;76401.13;;;-144.09;100.00
8890;BME280;4481;43.406;24.454;2023-05-29T00:27:09;76405.31;;;-144.09;100.00
8890;BME280;4481;43.406;24.454;2023-05-29T00:29:35;76417.84;;;-144.09;100.00
8890;BME280;4481;43.406;24.454;2023-05-29T00:32:02;76409.50;;;-144.09;100.00
8890;BME280;4481;43.406;24.454;2023-05-29T00:34:28;76407.41;;;-144.09;100.00
8890;BME280;4481;43.406;24.454;2023-05-29T00:36:54;76399.03;;;-144.09;100.00
8890;BME280;4481;43.406;24.454;2023-05-29T00:39:21;76401.13;;;-144.09;100.00
8890;BME280;4481;43.406;24.454;2023-05-29T00:41:47;76394.88;;;-144.09;100.00
8890;BME280;4481;43.406;24.454;2023-05-29T00:44:16;76388.59;;;-144.09;100.00
8890;BME280;4481;43.406;24.454;2023-05-29T00:46:42;76388.59;;;-144.09;100.00
8890;BME280;4481;43.406;24.454;2023-05-29T00:49:09;76384.41;;;-144.09;100.00
8890;BME280;4481;43.406;24.454;2023-05-29T00:51:37;76399.03;;;-144.09;100.00
8890;BME280;4481;43.406;24.454;2023-05-29T00:54:04;76392.78;;;-144.09;100.00
8890;BME280;4481;43.406;24.454;2023-05-29T00:56:33;76384.41;;;-144.09;100.00
8890;BME280;4481;43.406;24.454;2023-05-29T00:59:00;76382.31;;;-144.09;100.00
8890;BME280;4481;43.406;24.454;2023-05-29T01:01:27;76388.59;;;-144.09;100.00
8890;BME280;4481;43.406;24.454;2023-05-29T01:03:55;76378.16;;;-144.09;100.00
8890;BME280;4481;43.406;24.454;2023-05-29T01:06:23;76386.50;;;-144.09;100.00
8890;BME280;4481;43.406;24.454;2023-05-29T01:08:49;76384.41;;;-144.09;100.00
8890;BME280;4481;43.406;24.454;2023-05-29T01:11:23;76388.59;;;-144.09;100.00
8890;BME280;4481;43.406;24.454;2023-05-29T01:13:54;76390.69;;;-144.09;100.00
8890;BME280;4481;43.406;24.454;2023-05-29T01:16:29;76380.25;;;-144.09;100.00
8890;BME280;4481;43.406;24.454;2023-05-29T01:19:04;76378.16;;;-144.09;100.00
8890;BME280;4481;43.406;24.454;2023-05-29T01:21:42;76384.41;;;-144.09;100.00
8890;BME280;4481;43.406;24.454;2023-05-29T01:24:23;76388.59;;;-144.09;100.00
8890;BME280;4481;43.406;24.454;2023-05-29T01:26:55;76373.97;;;-144.09;100.00
8890;BME280;4481;43.406;24.454;2023-05-29T01:29:26;76388.59;;;-144.09;100.00
8890;BME280;4481;43.406;24.454;2023-05-29T01:31:54;76386.50;;;-144.09;100.00
8890;BME280;4481;43.406;24.454;2023-05-29T01:34:21;76378.16;;;-144.09;100.00
8890;BME280;4481;43.406;24.454;2023-05-29T01:36:47;76365.63;;;-144.09;100.00
8890;BME280;4481;43.406;24.454;2023-05-29T01:39:14;76359.34;;;-144.09;100.00
8890;BME280;4481;43.406;24.454;2023-05-29T01:41:41;76367.69;;;-144.09;100.00
8890;BME280;4481;43.406;24.454;2023-05-29T01:44:09;76367.69;;;-144.09;100.00
8890;BME280;4481;43.406;24.454;2023-05-29T01:46:37;76363.53;;;-144.09;100.00
8890;BME280;4481;43.406;24.454;2023-05-29T01:49:04;76359.34;;;-144.09;100.00
8890;BME280;4481;43.406;24.454;2023-05-29T01:51:30;76371.88;;;-144.09;100.00
8890;BME280;4481;43.406;24.454;2023-05-29T01:53:57;76380.25;;;-144.09;100.00
8890;BME280;4481;43.406;24.454;2023-05-29T01:56:24;76373.97;;;-144.09;100.00
8890;BME280;4481;43.406;24.454;2023-05-29T01:58:51;76359.34;;;-144.09;100.00
8890;BME280;4481;43.406;24.454;2023-05-29T02:01:19;76348.91;;;-144.09;100.00
8890;BME280;4481;43.406;24.454;2023-05-29T02:03:45;76359.34;;;-144.09;100.00
8890;BME280;4481;43.406;24.454;2023-05-29T02:06:11;76361.44;;;-144.09;100.00
8890;BME280;4481;43.406;24.454;2023-05-29T02:08:38;76363.53;;;-144.09;100.00
8890;BME280;4481;43.406;24.454;2023-05-29T02:11:04;76365.63;;;-144.09;100.00
8890;BME280;4481;43.406;24.454;2023-05-29T02:13:31;76367.69;;;-144.09;100.00
8890;BME280;4481;43.406;24.454;2023-05-29T02:15:57;76373.97;;;-144.09;100.00
8890;BME280;4481;43.406;24.454;2023-05-29T02:18:24;76365.63;;;-144.09;100.00
8890;BME280;4481;43.406;24.454;2023-05-29T02:20:50;76363.53;;;-144.09;100.00
8890;BME280;4481;43.406;24.454;2023-05-29T02:23:17;76371.88;;;-144.09;100.00
8890;BME280;4481;43.406;24.454;2023-05-29T02:25:44;76363.53;;;-144.09;100.00
8890;BME280;4481;43.406;24.454;2023-05-29T02:28:11;76359.34;;;-144.09;100.00
8890;BME280;4481;43.406;24.454;2023-05-29T02:30:38;76357.25;;;-144.09;100.00
8890;BME280;4481;43.406;24.454;2023-05-29T02:33:04;76359.34;;;-144.09;100.00
8890;BME280;4481;43.406;24.454;2023-05-29T02:35:32;76361.44;;;-144.09;100.00
8890;BME280;4481;43.406;24.454;2023-05-29T02:37:58;76367.69;;;-144.09;100.00
8890;BME280;4481;43.406;24.454;2023-05-29T02:40:24;76361.44;;;-144.09;100.00
8890;BME280;4481;43.406;24.454;2023-05-29T02:42:50;76380.25;;;-144.09;100.00
8890;BME280;4481;43.406;24.454;2023-05-29T02:45:17;76380.25;;;-144.09;100.00
8890;BME280;4481;43.406;24.454;2023-05-29T02:47:43;76373.97;;;-144.09;100.00
8890;BME280;4481;43.406;24.454;2023-05-29T02:50:10;76388.59;;;-144.09;100.00
8890;BME280;4481;43.406;24.454;2023-05-29T02:52:37;76396.94;;;-144.09;100.00
8890;BME280;4481;43.406;24.454;2023-05-29T02:55:03;76394.88;;;-144.09;100.00
8890;BME280;4481;43.406;24.454;2023-05-29T02:57:31;76409.50;;;-144.09;100.00
8890;BME280;4481;43.406;24.454;2023-05-29T02:59:57;76417.84;;;-144.09;100.00
8890;BME280;4481;43.406;24.454;2023-05-29T03:02:23;76413.66;;;-144.09;100.00
8890;BME280;4481;43.406;24.454;2023-05-29T03:04:49;76409.50;;;-144.09;100.00
8890;BME280;4481;43.406;24.454;2023-05-29T03:07:16;76411.56;;;-144.09;100.00
8890;BME280;4481;43.406;24.454;2023-05-29T03:09:43;76415.75;;;-144.09;100.00
8890;BME280;4481;43.406;24.454;2023-05-29T03:12:09;76417.84;;;-144.09;100.00
8890;BME280;4481;43.406;24.454;2023-05-29T03:14:36;76440.84;;;-144.09;100.00
8890;BME280;4481;43.406;24.454;2023-05-29T03:17:03;76451.28;;;-144.09;100.00
8890;BME280;4481;43.406;24.454;2023-05-29T03:19:30;76445.00;;;-144.09;100.00
8890;BME280;4481;43.406;24.454;2023-05-29T03:21:56;76442.91;;;-144.09;100.00
8890;BME280;4481;43.406;24.454;2023-05-29T03:24:22;76422.03;;;-144.09;100.00
8890;BME280;4481;43.406;24.454;2023-05-29T03:26:50;76424.13;;;-144.09;100.00
8890;BME280;4481;43.406;24.454;2023-05-29T03:29:16;76422.03;;;-144.09;100.00
8890;BME280;4481;43.406;24.454;2023-05-29T03:31:42;76434.56;;;-144.09;100.00
8890;BME280;4481;43.406;24.454;2023-05-29T03:34:08;76434.56;;;-144.09;100.00
8890;BME280;4481;43.406;24.454;2023-05-29T03:36:34;76413.66;;;-144.09;100.00
8890;BME280;4481;43.406;24.454;2023-05-29T03:39:01;76415.75;;;-144.09;100.00
8890;BME280;4481;43.406;24.454;2023-05-29T03:41:28;76405.31;;;-144.09;100.00
8890;BME280;4481;43.406;24.454;2023-05-29T03:43:55;76409.50;;;-144.09;100.00
8890;BME280;4481;43.406;24.454;2023-05-29T03:46:21;76426.22;;;-144.09;100.00
8890;BME280;4481;43.406;24.454;2023-05-29T03:48:47;76419.94;;;-144.09;100.00
8890;BME280;4481;43.406;24.454;2023-05-29T03:51:13;76422.03;;;-144.09;100.00
8890;BME280;4481;43.406;24.454;2023-05-29T03:53:39;76422.03;;;-144.09;100.00
8890;BME280;4481;43.406;24.454;2023-05-29T03:56:05;76411.56;;;-144.09;100.00
8890;BME280;4481;43.406;24.454;2023-05-29T03:58:32;76403.22;;;-144.09;100.00
8890;BME280;4481;43.406;24.454;2023-05-29T04:00:59;76392.78;;;-144.09;100.00
8890;BME280;4481;43.406;24.454;2023-05-29T04:03:25;76384.41;;;-144.09;100.00
8890;BME280;4481;43.406;24.454;2023-05-29T04:05:51;76386.50;;;-144.09;100.00
8890;BME280;4481;43.406;24.454;2023-05-29T04:08:17;76369.78;;;-144.09;100.00
8890;BME280;4481;43.406;24.454;2023-05-29T04:10:43;76342.63;;;-144.09;100.00
8890;BME280;4481;43.406;24.454;2023-05-29T04:13:09;76344.72;;;-144.09;100.00
8890;BME280;4481;43.406;24.454;2023-05-29T04:15:35;76346.81;;;-144.09;100.00
8890;BME280;4481;43.406;24.454;2023-05-29T04:18:03;76340.53;;;-144.09;100.00
8890;BME280;4481;43.406;24.454;2023-05-29T04:20:30;76328.00;;;-144.09;100.00
8890;BME280;4481;43.406;24.454;2023-05-29T04:22:56;76342.63;;;-144.09;100.00
8890;BME280;4481;43.406;24.454;2023-05-29T04:25:22;76346.81;;;-144.09;100.00
8890;BME280;4481;43.406;24.454;2023-05-29T04:27:48;76334.28;;;-144.09;100.00
8890;BME280;4481;43.406;24.454;2023-05-29T04:30:15;76348.91;;;-144.09;100.00
8890;BME280;4481;43.406;24.454;2023-05-29T04:32:42;76332.19;;;-144.09;100.00
8890;BME280;4481;43.406;24.454;2023-05-29T04:35:09;76330.09;;;-144.09;100.00
8890;BME280;4481;43.406;24.454;2023-05-29T04:37:36;76325.91;;;-144.09;100.00
8890;BME280;4481;43.406;24.454;2023-05-29T04:40:04;76292.47;;;-144.09;100.00
8890;BME280;4481;43.406;24.454;2023-05-29T04:42:32;76298.75;;;-144.09;100.00
8890;BME280;4481;43.406;24.454;2023-05-29T04:45:01;76279.94;;;-144.09;100.00
8890;BME280;4481;43.406;24.454;2023-05-29T04:47:27;76213.09;;;-144.09;100.00
8890;BME280;4481;43.406;24.454;2023-05-29T04:49:54;76185.94;;;-144.09;100.00
8890;BME280;4481;43.406;24.454;2023-05-29T04:52:20;76194.28;;;-144.09;100.00
8890;BME280;4481;43.406;24.454;2023-05-29T04:54:47;76175.47;;;-144.09;100.00
8890;BME280;4481;43.406;24.454;2023-05-29T04:57:13;76179.66;;;-144.09;100.00
8890;BME280;4481;43.406;24.454;2023-05-29T04:59:39;76154.59;;;-144.09;100.00
8890;BME280;4481;43.406;24.454;2023-05-29T05:02:05;76144.13;;;-144.09;100.00
8890;BME280;4481;43.406;24.454;2023-05-29T05:04:32;76160.84;;;-144.09;100.00
8890;BME280;4481;43.406;24.454;2023-05-29T05:06:58;76146.22;;;-144.09;100.00
8890;BME280;4481;43.406;24.454;2023-05-29T05:09:25;76139.97;;;-144.09;100.00
8890;BME280;4481;43.406;24.454;2023-05-29T05:11:51;76121.16;;;-144.09;100.00
8890;BME280;4481;43.406;24.454;2023-05-29T05:14:18;76123.25;;;-144.09;100.00
8890;BME280;4481;43.406;24.454;2023-05-29T05:16:44;76121.16;;;-144.09;100.00
8890;BME280;4481;43.406;24.454;2023-05-29T05:19:10;76131.59;;;-144.09;100.00
8890;BME280;4481;43.406;24.454;2023-05-29T05:21:36;76125.34;;;-144.09;100.00
8890;BME280;4481;43.406;24.454;2023-05-29T05:24:03;76139.97;;;-144.09;100.00
8890;BME280;4481;43.406;24.454;2023-05-29T05:26:30;76152.50;;;-144.09;100.00
8890;BME280;4481;43.406;24.454;2023-05-29T05:28:56;76150.41;;;-144.09;100.00
8890;BME280;4481;43.406;24.454;2023-05-29T05:31:23;76158.75;;;-144.09;100.00
8890;BME280;4481;43.406;24.454;2023-05-29T05:33:49;76173.38;;;-144.09;100.00
8890;BME280;4481;43.406;24.454;2023-05-29T05:36:15;76162.94;;;-144.09;100.00
8890;BME280;4481;43.406;24.454;2023-05-29T05:38:42;76160.84;;;-144.09;100.00
8890;BME280;4481;43.406;24.454;2023-05-29T05:41:08;76142.03;;;-144.09;100.00
8890;BME280;4481;43.406;24.454;2023-05-29T05:43:35;76125.34;;;-144.09;100.00
8890;BME280;4481;43.406;24.454;2023-05-29T05:46:01;76100.25;;;-144.09;100.00
8890;BME280;4481;43.406;24.454;2023-05-29T05:48:27;76068.94;;;-144.09;100.00
8890;BME280;4481;43.406;24.454;2023-05-29T05:50:53;76022.97;;;-144.09;100.00
8890;BME280;4481;43.406;24.454;2023-05-29T05:53:20;76033.41;;;-144.09;100.00
8890;BME280;4481;43.406;24.454;2023-05-29T05:55:47;76037.59;;;-144.09;100.00
8890;BME280;4481;43.406;24.454;2023-05-29T05:58:13;76039.69;;;-144.09;100.00
8890;BME280;4481;43.406;24.454;2023-05-29T06:00:40;76029.22;;;-144.09;100.00
8890;BME280;4481;43.406;24.454;2023-05-29T06:03:08;76020.88;;;-144.09;100.00
8890;BME280;4481;43.406;24.454;2023-05-29T06:05:34;76035.50;;;-144.09;100.00
8890;BME280;4481;43.406;24.454;2023-05-29T06:08:01;76031.31;;;-144.09;100.00
8890;BME280;4481;43.406;24.454;2023-05-29T06:10:28;75991.63;;;-144.09;100.00
8890;BME280;4481;43.406;24.454;2023-05-29T06:12:54;75949.84;;;-144.09;100.00
8890;BME280;4481;43.406;24.454;2023-05-29T06:15:20;75920.59;;;-144.09;100.00
8890;BME280;4481;43.406;24.454;2023-05-29T06:17:47;75914.31;;;-144.09;100.00
8890;BME280;4481;43.406;24.454;2023-05-29T06:20:14;75849.56;;;-144.09;100.00
8890;BME280;4481;43.406;24.454;2023-05-29T06:22:41;75855.81;;;-144.09;100.00
8890;BME280;4481;43.406;24.454;2023-05-29T06:25:08;75847.47;;;-144.09;100.00
8890;BME280;4481;43.406;24.454;2023-05-29T06:27:35;75843.28;;;-144.09;100.00
8890;BME280;4481;43.406;24.454;2023-05-29T06:30:01;75828.66;;;-144.09;100.00
8890;BME280;4481;43.406;24.454;2023-05-29T06:32:28;75805.69;;;-144.09;100.00
8890;BME280;4481;43.406;24.454;2023-05-29T06:34:55;75774.34;;;-144.09;100.00
8890;BME280;4481;43.406;24.454;2023-05-29T06:37:21;75801.50;;;-144.09;100.00
8890;BME280;4481;43.406;24.454;2023-05-29T06:39:47;75809.88;;;-144.09;100.00
8890;BME280;4481;43.406;24.454;2023-05-29T06:42:13;75801.50;;;-144.09;100.00
8890;BME280;4481;43.406;24.454;2023-05-29T06:44:39;75797.34;;;-144.09;100.00
8890;BME280;4481;43.406;24.454;2023-05-29T06:47:06;75774.34;;;-144.09;100.00
8890;BME280;4481;43.406;24.454;2023-05-29T06:49:32;75768.09;;;-144.09;100.00
8890;BME280;4481;43.406;24.454;2023-05-29T06:51:59;75730.47;;;-144.09;100.00
8890;BME280;4481;43.406;24.454;2023-05-29T06:54:25;75684.53;;;-144.09;100.00
8890;BME280;4481;43.406;24.454;2023-05-29T06:56:52;75686.59;;;-144.09;100.00
8890;BME280;4481;43.406;24.454;2023-05-29T06:59:19;75701.22;;;-144.09;100.00
8890;BME280;4481;43.406;24.454;2023-05-29T07:01:45;75734.66;;;-144.09;100.00
8890;BME280;4481;43.406;24.454;2023-05-29T07:04:12;75713.78;;;-144.09;100.00
8890;BME280;4481;43.406;24.454;2023-05-29T07:06:38;75717.94;;;-144.09;100.00
8890;BME280;4481;43.406;24.454;2023-05-29T07:09:05;75732.56;;;-144.09;100.00
8890;BME280;4481;43.406;24.454;2023-05-29T07:11:31;75726.31;;;-144.09;100.00
8890;BME280;4481;43.406;24.454;2023-05-29T07:13:57;75726.31;;;-144.09;100.00
8890;BME280;4481;43.406;24.454;2023-05-29T07:16:23;75701.22;;;-144.09;100.00
8890;BME280;4481;43.406;24.454;2023-05-29T07:18:49;75674.06;;;-144.09;100.00
8890;BME280;4481;43.406;24.454;2023-05-29T07:21:17;75657.38;;;-144.09;100.00
8890;BME280;4481;43.406;24.454;2023-05-29T07:23:43;75661.53;;;-144.09;99.30
8890;BME280;4481;43.406;24.454;2023-05-29T07:26:11;75638.56;;;-144.09;99.73
8890;BME280;4481;43.406;24.454;2023-05-29T07:28:37;75594.69;;;-144.09;99.11
8890;BME280;4481;43.406;24.454;2023-05-29T07:31:06;75590.50;;;-144.09;98.57
8890;BME280;4481;43.406;24.454;2023-05-29T07:33:32;75649.00;;;-144.09;100.00
8890;BME280;4481;43.406;24.454;2023-05-29T07:35:58;75699.16;;;-144.09;100.00
8890;BME280;4481;43.406;24.454;2023-05-29T07:38:24;75682.44;;;-144.09;99.91
8890;BME280;4481;43.406;24.454;2023-05-29T07:40:50;75678.25;;;-144.09;99.83
8890;BME280;4481;43.406;24.454;2023-05-29T07:43:17;75684.53;;;-144.09;98.17
8890;BME280;4481;43.406;24.454;2023-05-29T07:45:43;75722.13;;;-144.09;98.60
8890;BME280;4481;43.406;24.454;2023-05-29T07:48:10;75740.94;;;-144.09;100.00
8890;BME280;4481;43.406;24.454;2023-05-29T07:50:36;75747.19;;;-144.09;99.08
8890;BME280;4481;43.406;24.454;2023-05-29T07:53:02;75757.63;;;-144.09;100.00
8890;BME280;4481;43.406;24.454;2023-05-29T07:55:29;75720.03;;;-144.09;100.00
8890;BME280;4481;43.406;24.454;2023-05-29T07:57:56;75667.81;;;-144.09;97.96
8890;BME280;4481;43.406;24.454;2023-05-29T08:00:23;75640.66;;;-144.09;96.50
8890;BME280;4481;43.406;24.454;2023-05-29T08:02:49;75646.91;;;-144.09;97.14
8890;BME280;4481;43.406;24.454;2023-05-29T08:05:16;75669.91;;;-144.09;94.66
8890;BME280;4481;43.406;24.454;2023-05-29T08:07:44;75665.72;;;-144.09;95.78
8890;BME280;4481;43.406;24.454;2023-05-29T08:10:12;75667.81;;;-144.09;96.35
8890;BME280;4481;43.406;24.454;2023-05-29T08:12:38;75649.00;;;-144.09;94.79
8890;BME280;4481;43.406;24.454;2023-05-29T08:15:05;75680.34;;;-144.09;95.00
8890;BME280;4481;43.406;24.454;2023-05-29T08:17:32;75738.84;;;-144.09;96.37
8890;BME280;4481;43.406;24.454;2023-05-29T08:19:58;75768.09;;;-144.09;96.92
8890;BME280;4481;43.406;24.454;2023-05-29T08:22:28;75753.47;;;-144.09;98.16
8890;BME280;4481;43.406;24.454;2023-05-29T08:24:56;75778.53;;;-144.09;100.00
8890;BME280;4481;43.406;24.454;2023-05-29T08:27:22;75763.91;;;-144.09;97.17
8890;BME280;4481;43.406;24.454;2023-05-29T08:29:48;75747.19;;;-144.09;97.01
8890;BME280;4481;43.406;24.454;2023-05-29T08:32:14;75709.59;;;-144.09;96.92
8890;BME280;4481;43.406;24.454;2023-05-29T08:34:41;75766.00;;;-144.09;97.56
8890;BME280;4481;43.406;24.454;2023-05-29T08:37:11;75715.84;;;-144.09;96.33
8890;BME280;4481;43.406;24.454;2023-05-29T08:39:38;75697.06;;;-144.09;95.80
8890;BME280;4481;43.406;24.454;2023-05-29T08:42:05;75711.69;;;-144.09;96.91
8890;BME280;4481;43.406;24.454;2023-05-29T08:44:33;75763.91;;;-144.09;96.97
8890;BME280;4481;43.406;24.454;2023-05-29T08:47:02;75755.53;;;-144.09;97.49
8890;BME280;4481;43.406;24.454;2023-05-29T08:49:29;75684.53;;;-144.09;96.38
8890;BME280;4481;43.406;24.454;2023-05-29T08:52:08;75694.97;;;-144.09;96.18
8890;BME280;4481;43.406;24.454;2023-05-29T08:54:35;75703.31;;;-144.09;96.57
8890;BME280;4481;43.406;24.454;2023-05-29T08:57:02;75678.25;;;-144.09;94.12
8890;BME280;4481;43.406;24.454;2023-05-29T08:59:30;75655.28;;;-144.09;95.17
8890;BME280;4481;43.406;24.454;2023-05-29T09:01:56;75636.47;;;-144.09;94.66
8890;BME280;4481;43.406;24.454;2023-05-29T09:04:22;75717.94;;;-144.09;95.06
8890;BME280;4481;43.406;24.454;2023-05-29T09:06:49;75663.63;;;-144.09;94.01
8890;BME280;4481;43.406;24.454;2023-05-29T09:09:19;75557.09;;;-144.09;94.50
8890;BME280;4481;43.406;24.454;2023-05-29T09:11:46;75613.50;;;-144.09;93.16
8890;BME280;4481;43.406;24.454;2023-05-29T09:14:33;75590.50;;;-144.09;92.02
8890;BME280;4481;43.406;24.454;2023-05-29T09:16:59;75603.06;;;-144.09;92.51
8890;BME280;4481;43.406;24.454;2023-05-29T09:19:26;75644.84;;;-144.09;93.02
8890;BME280;4481;43.406;24.454;2023-05-29T09:21:54;75657.38;;;-144.09;93.59
8890;BME280;4481;43.406;24.454;2023-05-29T09:24:27;75642.75;;;-144.09;93.91
8890;BME280;4481;43.406;24.454;2023-05-29T09:26:53;75626.03;;;-144.09;93.51
8890;BME280;4481;43.406;24.454;2023-05-29T09:29:21;75644.84;;;-144.09;93.46
8890;BME280;4481;43.406;24.454;2023-05-29T09:31:47;75655.28;;;-144.09;94.55
8890;BME280;4481;43.406;24.454;2023-05-29T09:34:14;75649.00;;;-144.09;93.70
8890;BME280;4481;43.406;24.454;2023-05-29T09:36:40;75642.75;;;-144.09;94.57
8890;BME280;4481;43.406;24.454;2023-05-29T09:39:07;75586.34;;;-144.09;93.34
8890;BME280;4481;43.406;24.454;2023-05-29T09:41:41;75577.97;;;-144.09;93.19
8890;BME280;4481;43.406;24.454;2023-05-29T09:44:07;75575.91;;;-144.09;93.91
8890;BME280;4481;43.406;24.454;2023-05-29T09:46:39;75577.97;;;-144.09;95.17
8890;BME280;4481;43.406;24.454;2023-05-29T09:49:09;75567.53;;;-144.09;92.75
8890;BME280;4481;43.406;24.454;2023-05-29T09:51:36;75598.88;;;-144.09;92.09
8890;BME280;4481;43.406;24.454;2023-05-29T09:54:14;75628.13;;;-144.09;93.29
8890;BME280;4481;43.406;24.454;2023-05-29T09:56:42;75623.94;;;-144.09;92.45
8890;BME280;4481;43.406;24.454;2023-05-29T09:59:10;75586.34;;;-144.09;93.17
8890;BME280;4481;43.406;24.454;2023-05-29T10:01:40;75548.75;;;-144.09;92.94
8890;BME280;4481;43.406;24.454;2023-05-29T10:04:07;75594.69;;;-144.09;91.66
8890;BME280;4481;43.406;24.454;2023-05-29T10:06:35;75630.22;;;-144.09;92.83
8890;BME280;4481;43.406;24.454;2023-05-29T10:09:03;75577.97;;;-144.09;93.91
8890;BME280;4481;43.406;24.454;2023-05-29T10:11:31;75586.34;;;-144.09;93.07
8890;BME280;4481;43.406;24.454;2023-05-29T10:14:00;75577.97;;;-144.09;93.75
8890;BME280;4481;43.406;24.454;2023-05-29T10:16:29;75565.44;;;-144.09;93.56
8890;BME280;4481;43.406;24.454;2023-05-29T10:19:00;75615.59;;;-144.09;93.61
8890;BME280;4481;43.406;24.454;2023-05-29T10:21:28;75632.28;;;-144.09;95.33
8890;BME280;4481;43.406;24.454;2023-05-29T10:23:54;75692.88;;;-144.09;96.18
8890;BME280;4481;43.406;24.454;2023-05-29T10:26:24;75703.31;;;-144.09;97.80
8890;BME280;4481;43.406;24.454;2023-05-29T10:28:57;75672.00;;;-144.09;98.36
8890;BME280;4481;43.406;24.454;2023-05-29T10:31:33;75659.44;;;-144.09;95.32
8890;BME280;4481;43.406;24.454;2023-05-29T10:34:18;75678.25;;;-144.09;95.01
8890;BME280;4481;43.406;24.454;2023-05-29T10:36:52;75667.81;;;-144.09;96.56
8890;BME280;4481;43.406;24.454;2023-05-29T10:39:22;75630.22;;;-144.09;96.11
8890;BME280;4481;43.406;24.454;2023-05-29T10:41:48;75623.94;;;-144.09;94.74
8890;BME280;4481;43.406;24.454;2023-05-29T10:44:37;75609.31;;;-144.09;92.70
8890;BME280;4481;43.406;24.454;2023-05-29T10:47:05;75632.28;;;-144.09;91.38
8890;BME280;4481;43.406;24.454;2023-05-29T10:49:34;75565.44;;;-144.09;90.87
8890;BME280;4481;43.406;24.454;2023-05-29T10:52:00;75529.94;;;-144.09;90.63
8890;BME280;4481;43.406;24.454;2023-05-29T10:54:40;75544.56;;;-144.09;90.37
8890;BME280;4481;43.406;24.454;2023-05-29T10:57:07;75525.75;;;-144.09;91.32
8890;BME280;4481;43.406;24.454;2023-05-29T10:59:36;75515.31;;;-144.09;90.39
8890;BME280;4481;43.406;24.454;2023-05-29T11:02:04;75506.97;;;-144.09;91.05
8890;BME280;4481;43.406;24.454;2023-05-29T11:04:31;75498.59;;;-144.09;91.24
8890;BME280;4481;43.406;24.454;2023-05-29T11:06:58;75486.06;;;-144.09;89.92
8890;BME280;4481;43.406;24.454;2023-05-29T11:09:30;75469.34;;;-144.09;89.87
8890;BME280;4481;43.406;24.454;2023-05-29T11:12:14;75496.50;;;-144.09;89.46
8890;BME280;4481;43.406;24.454;2023-05-29T11:14:54;75517.41;;;-144.09;89.76
8890;BME280;4481;43.406;24.454;2023-05-29T11:17:44;75500.69;;;-144.09;89.39
8890;BME280;4481;43.406;24.454;2023-05-29T11:20:25;75492.34;;;-144.09;88.39
8890;BME280;4481;43.406;24.454;2023-05-29T11:23:01;75506.97;;;-144.09;89.34
8890;BME280;4481;43.406;24.454;2023-05-29T11:25:28;75483.97;;;-144.09;90.01
8890;BME280;4481;43.406;24.454;2023-05-29T11:27:54;75473.53;;;-144.09;89.76
8890;BME280;4481;43.406;24.454;2023-05-29T11:30:21;75517.41;;;-144.09;88.47
8890;BME280;4481;43.406;24.454;2023-05-29T11:32:52;75519.50;;;-144.09;88.26
8890;BME280;4481;43.406;24.454;2023-05-29T11:35:21;75494.44;;;-144.09;89.61
8890;BME280;4481;43.406;24.454;2023-05-29T11:37:48;75431.75;;;-144.09;87.88
8890;BME280;4481;43.406;24.454;2023-05-29T11:40:15;75404.59;;;-144.09;87.85
8890;BME280;4481;43.406;24.454;2023-05-29T11:42:42;75429.66;;;-144.09;87.14
8890;BME280;4481;43.406;24.454;2023-05-29T11:45:11;75469.34;;;-144.09;91.99
8890;BME280;4481;43.406;24.454;2023-05-29T11:47:53;75511.13;;;-144.09;95.11
8890;BME280;4481;43.406;24.454;2023-05-29T11:50:21;75607.22;;;-144.09;96.96
8890;BME280;4481;43.406;24.454;2023-05-29T11:52:47;75699.16;;;-144.09;100.00
8890;BME280;4481;43.406;24.454;2023-05-29T11:55:13;75828.66;;;-144.09;100.00
8890;BME280;4481;43.406;24.454;2023-05-29T11:57:40;75837.03;;;-144.09;100.00
8890;BME280;4481;43.406;24.454;2023-05-29T12:00:07;75847.47;;;-144.09;100.00
8890;BME280;4481;43.406;24.454;2023-05-29T12:02:36;75853.72;;;-144.09;100.00
8890;BME280;4481;43.406;24.454;2023-05-29T12:05:02;75853.72;;;-144.09;100.00
8890;BME280;4481;43.406;24.454;2023-05-29T12:07:30;75897.59;;;-144.09;100.00
8890;BME280;4481;43.406;24.454;2023-05-29T12:09:56;75977.00;;;-144.09;100.00
8890;BME280;4481;43.406;24.454;2023-05-29T12:12:23;76004.16;;;-144.09;100.00
8890;BME280;4481;43.406;24.454;2023-05-29T12:14:50;76020.88;;;-144.09;100.00
8890;BME280;4481;43.406;24.454;2023-05-29T12:17:16;75995.81;;;-144.09;100.00
8890;BME280;4481;43.406;24.454;2023-05-29T12:19:42;75977.00;;;-144.09;100.00
8890;BME280;4481;43.406;24.454;2023-05-29T12:22:08;75968.63;;;-144.09;100.00
8890;BME280;4481;43.406;24.454;2023-05-29T12:24:36;75954.00;;;-144.09;100.00
8890;BME280;4481;43.406;24.454;2023-05-29T12:27:03;75943.56;;;-144.09;100.00
8890;BME280;4481;43.406;24.454;2023-05-29T12:29:33;75920.59;;;-144.09;100.00
8890;BME280;4481;43.406;24.454;2023-05-29T12:31:59;75935.22;;;-144.09;100.00
8890;BME280;4481;43.406;24.454;2023-05-29T12:34:25;75914.31;;;-144.09;100.00
8890;BME280;4481;43.406;24.454;2023-05-29T12:36:52;75916.41;;;-144.09;100.00
8890;BME280;4481;43.406;24.454;2023-05-29T12:39:18;75914.31;;;-144.09;100.00
8890;BME280;4481;43.406;24.454;2023-05-29T12:41:45;75926.84;;;-144.09;100.00
8890;BME280;4481;43.406;24.454;2023-05-29T12:44:11;75937.31;;;-144.09;100.00